Airports

 


Airport Name Latest METAR Visual Conditions
Cincinnati/Northern Kentucky International (CVG) KCVG 182252Z 27006KT 10SM SCT140 BKN250 16/M01 A2987 RMK AO2 SLP115 T01561006 VFR
John Glenn Columbus International (CMH) KCMH 182251Z 26008KT 10SM FEW250 16/M05 A2985 RMK AO2 SLP110 T01561050 $ VFR
Yeager (CRW) KCRW 182254Z 30005KT 10SM SCT075 BKN095 16/M01 A2987 RMK AO2 SLP113 T01611006 VFR
James M Cox Dayton International (DAY) KDAY 182256Z 30007KT 10SM FEW060 FEW070 FEW250 16/M03 A2988 RMK AO2 SLP120 T01561028 VFR
Evansville Regional (EVV) KEVV 182154Z 19009KT 5SM -RA FEW034 OVC055 12/07 A2992 RMK AO2 RAE16B40 SLP131 P0001 T01220067 $ MVFR
Indianapolis International (IND) KIND 182254Z 27017G21KT 10SM BKN075 BKN090 15/01 A2988 RMK AO2 SLP120 VIRGA SW-N T01500011 VFR
Blue Grass (LEX) KLEX 182254Z 32005KT 10SM BKN085 14/03 A2989 RMK AO2 SLP124 T01440033 $ VFR
Louisville Muhammad Ali International (SDF) KSDF 182256Z 00000KT 10SM FEW080 FEW090 BKN120 BKN250 18/02 A2988 RMK AO2 SLP117 T01780017 VFR
Anderson Municipal-Darlington Field (AID) KAID 181335Z AUTO 31003KT 10SM CLR 07/01 A2997 RMK AO2 T00660005 VFR
Columbus Municipal (BAK) KBAK 182245Z 20006KT 10SM BKN080 OVC110 13/03 A2989 VFR
Monroe County (BMG) KBMG 182253Z 01008KT 10SM FEW070 14/04 A2989 RMK AO2 SLP124 T01390044 VFR
Wright-Patterson Air Force Base (FFO) KFFO 182156Z 31008KT 10SM SCT250 16/M04 A2987 RMK AO2A SLP120 T01641037 VFR
Godman Army Airfield (FTK) KFTK 182256Z AUTO 00000KT 10SM OVC110 16/02 A2988 RMK AO2 SLP122 T01580015 $ VFR
Himsel Army Airfield (HBE) No weather for this Airport Unknown
Tri-State/Milton J Ferguson Field (HTS) KHTS 182251Z 25006KT 10SM FEW095 16/00 A2987 RMK AO2 SLP115 T01610000 VFR
Terre Haute Regional (HUF) KHUF 182253Z 34003KT 10SM FEW048 BKN070 OVC100 15/04 A2990 RMK AO2 RAE02 SLP126 P0000 T01500044 VFR
Wilmington Air Park (ILN) KILN 182254Z AUTO 32010KT 10SM CLR 16/M03 A2987 RMK AO2 SLP122 T01561028 VFR
Rickenbacker International (LCK) KLCK 182255Z AUTO 28007KT 10SM CLR 15/M05 A2986 RMK AO2 T01541047 VFR
Bowman Field (LOU) KLOU 182253Z 00000KT 10SM SCT085 17/04 A2988 RMK AO2 SLP119 T01670039 VFR
Cincinnati Municipal Airport Lunken Field (LUK) KLUK 182253Z 27005KT 10SM CLR 16/M02 A2987 RMK AO2 SLP117 T01561022 VFR
Delaware County Regional (MIE) KMIE 182253Z 28003KT 10SM SCT100 17/M03 A2987 RMK AO2 SLP115 T01671033 VFR
Ohio State University (OSU) KOSU 182253Z 28007KT 10SM CLR 16/M03 A2986 RMK AO2 SLP113 T01561033 VFR
Owensboro-Daviess County Regional (OWB) KOWB 182256Z 34011KT 10SM FEW075 OVC100 15/06 A2990 RMK AO2 SLP126 T01500061 VFR
Mid-Ohio Valley Regional (PKB) KPKB 182253Z 00000KT 10SM BKN100 15/03 A2986 RMK AO2 SLP112 T01500028 VFR
Bolton Field (TZR) KTZR 182247Z 29008KT 10SM CLR 16/M03 A2987 VFR
Middlesboro-Bell County (1A6) K1A6 182255Z AUTO 34003KT 10SM BKN085 16/02 A2988 RMK AO2 T01600018 VFR
Georgetown-Scott County Regional (27K) K27K 182215Z AUTO 00000KT 10SM SCT065 BKN085 OVC100 14/05 A2990 RMK AO1 VFR
Madisonville Regional (2I0) K2I0 182255Z AUTO 26004KT 10SM OVC120 17/01 A2990 RMK AO2 T01700012 VFR
Mason County (3I2) K3I2 182255Z AUTO 21005KT 10SM CLR 17/00 A2988 RMK AO2 T01690003 VFR
Knox County (4I3) K4I3 182255Z AUTO 26008KT 10SM SCT075 15/M02 A2986 RMK AO2 VFR
Lebanon Springfield-George Hoerter Field (6I2) K6I2 182250Z AUTO 00000KT 10SM BKN110 16/02 A2990 RMK AO2 VFR
Logan County (6L4) K6L4 182255Z AUTO VRB03KT 10SM OVC085 15/M03 A2989 RMK AO2 VFR
Livingston Municipal (8A3) K8A3 182255Z AUTO 00000KT 10SM OVC085 16/02 A2987 RMK A01 VFR
Kee Field (I16) KI16 181710Z AUTO 10SM OVC060 16/03 A2996 RMK AO2 T01590025 VFR
Greene County-Lewis A Jackson Regional (I19) KI19 182255Z AUTO 00000KT 10SM CLR 16/M02 A2988 RMK AO2 T01561022 VFR
Fayette County (I23) KI23 182255Z AUTO 28012KT 10SM CLR 15/M05 A2987 RMK AO1 VFR
Tucker-Guthrie Memorial (I35) KI35 182255Z AUTO 32003KT 10SM BKN080 16/00 A2989 RMK AO2 T01591004 VFR
James A Rhodes (I43) KI43 182215Z AUTO 27004KT 10SM SCT080 17/M02 A2988 RMK AO2 VFR
Cincinnati West (I67) KI67 182255Z AUTO 31006KT 10SM CLR 16/M03 A2987 RMK AO1 VFR
Clermont County (I69) KI69 182255Z AUTO 35006KT 10SM CLR 17/M03 A2988 RMK AO2 T01651029 VFR
Grimes Field (I74) KI74 182255Z AUTO 31007KT 10SM CLR 14/M07 A2988 RMK AO2 VFR
Hancock Co-Ron Lewis Field (KY8) KKY8 182255Z AUTO 22006KT 10SM BKN080 16/05 A2989 RMK A01 VFR
Brazil Clay County (0I2) No weather for this Airport Unknown
Cynthiana-Harrison County (0I8) No weather for this Airport Unknown
Holmes County (10G) No weather for this Airport Unknown
Ona Airpark (12V) No weather for this Airport Unknown
Mc Creary County (18I) No weather for this Airport Unknown
Casey Municipal (1H8) No weather for this Airport Unknown
Jamestown Municipal (2A1) No weather for this Airport Unknown
Hendricks County-Gordon Graham Fld (2R2) No weather for this Airport Unknown
Sky King (3I3) No weather for this Airport Unknown
Dayton-Phillipsburg (3I7) No weather for this Airport Unknown
Morrow County (4I9) No weather for this Airport Unknown
Sheridan (5I4) No weather for this Airport Unknown
Indianapolis Downtown (8A4) No weather for this Airport Unknown
Piqua Airport- Hartzell Field (I17) No weather for this Airport Unknown
Jackson County (I18) No weather for this Airport Unknown
Randolph County (I22) No weather for this Airport Unknown
Greensburg Municipalcipal (I34) No weather for this Airport Unknown
Richard Downing (I40) No weather for this Airport Unknown
Clinton Field (I66) No weather for this Airport Unknown
Warren County/John Lane Field (I68) No weather for this Airport Unknown
Perry County (I86) No weather for this Airport Unknown
Breckinridge County (I93) No weather for this Airport Unknown
Hardin County (I95) No weather for this Airport Unknown
Russell County (K24) No weather for this Airport Unknown
Gene Snyder (K62) No weather for this Airport Unknown
Leitchfield-Grayson Co (M20) No weather for this Airport Unknown
Taylor County (AAS) KAAS 182255Z AUTO 00000KT 10SM SCT070 SCT085 OVC110 17/01 A2994 RMK AO1 VFR
Mount Carmel Municipal (AJG) KAJG 182255Z AUTO 23009KT 10SM BKN100 15/03 A2989 RMK AO2 T01490034 VFR
Alexander Salamon (AMT) No weather for this Airport Unknown
Lima Allen County (AOH) No weather for this Airport Unknown
Neil Armstrong (AXV) KAXV 182255Z AUTO 31005KT 10SM CLR 14/00 A2987 RMK AO2 VFR
Virgil I Grissom Municipal (BFR) No weather for this Airport Unknown
Raleigh County Memorial (BKW) KBKW 182251Z AUTO 29007KT 10SM OVC080 13/M01 A2989 RMK AO2 SLP118 T01281006 TSNO VFR
Mercer County (BLF) KBLF 182252Z AUTO 28008KT 10SM FEW075 12/M01 A2989 RMK AO2 SLP118 T01221011 VFR
Samuels Field (BRY) KBRY 182255Z AUTO 00000KT 10SM CLR 15/02 A2988 RMK AO1 VFR
Williamsburg-Whitley County (BYL) KBYL 182255Z AUTO 02004KT 10SM FEW070 SCT090 14/00 A2988 RMK AO1 VFR
Mettel Field (CEV) No weather for this Airport Unknown
Crawfordsville Regional (CFJ) KCFJ 182255Z AUTO 00000KT 10SM CLR 13/03 A2989 RMK AO2 T01330029 VFR
Wendell H Ford (CPF) No weather for this Airport Unknown
Lakefield (CQA) No weather for this Airport Unknown
Carmi Municipal (CUL) No weather for this Airport Unknown
Pickaway County Memorial (CYO) No weather for this Airport Unknown
Daviess County (DCY) KDCY 182235Z AUTO 35009G14KT 10SM SCT060 BKN080 14/05 A2990 RMK AO2 T01420047 VFR
Delaware Municipal - Jim Moore Field (DLZ) No weather for this Airport Unknown
Stuart Powell Field (DVK) KDVK 182255Z AUTO 00000KT 10SM SCT110 15/02 A2991 RMK AO2 VFR
Ashland Regional (DWU) No weather for this Airport Unknown
Appalachian Regional (EBD) No weather for this Airport Unknown
Bellefontaine Regional (EDJ) No weather for this Airport Unknown
Henderson City-County (EHR) KEHR 182256Z AUTO 33007KT 10SM SCT070 OVC085 15/06 A2991 RMK AO2 SLP130 T01500056 VFR
Wayne County (EKQ) No weather for this Airport Unknown
Addington Field (EKX) No weather for this Airport Unknown
Pike County (EOP) No weather for this Airport Unknown
Eagle Creek Airpark (EYE) No weather for this Airport Unknown
Capital City (FFT) No weather for this Airport Unknown
Fleming-Mason (FGX) KFGX 182235Z AUTO 27007KT 10SM SCT095 16/02 A2990 RMK AO2 T01610015 VFR
French Lick Municipal (FRH) No weather for this Airport Unknown
Gallia-Meigs Regional (GAS) No weather for this Airport Unknown
Brown County (GEO) No weather for this Airport Unknown
Shelbyville Municipal (GEZ) No weather for this Airport Unknown
Putnam County Regional (GPC) KGPC 182255Z AUTO 32006KT 10SM SCT050 SCT070 OVC080 14/03 A2990 RMK AO2 T01390031 VFR
Butler Co Regional-Hogan Field (HAO) No weather for this Airport Unknown
Indy South Greenwood (HFY) KHFY 182255Z AUTO 25006KT 10SM OVC080 16/00 A2988 RMK AO2 T01551002 VFR
Huntingburg (HNB) KHNB 182256Z AUTO 29007KT 10SM -RA OVC065 13/07 A2991 RMK AO2 RAB06 SLP131 P0000 T01330072 VFR
Highland County (HOC) No weather for this Airport Unknown
Madison Municipal (IMS) No weather for this Airport Unknown
Mount Sterling-Montgomery County (IOB) KIOB 182255Z AUTO 25003KT 10SM BKN110 15/02 A2991 RMK AO2 PWINO VFR
Julian Carroll (JKL) No weather for this Airport Unknown
Ohio County (JQD) No weather for this Airport Unknown
Clark Regional (JVY) KJVY 182255Z AUTO 28004KT 10SM CLR 17/05 A2989 RMK AO2 T01660052 TSNO VFR
Fairfield County (LHQ) KLHQ 182253Z AUTO 25009KT 10SM CLR 16/M02 A2986 RMK AO2 SLP114 T01561022 VFR
Lonesome Pine (LNP) No weather for this Airport Unknown
London-Corbin Arpt-Magee Field (LOZ) KLOZ 182153Z AUTO VRB03KT 10SM BKN090 17/00 A2989 RMK AO2 SLP122 T01670000 VFR
Lawrenceville-Vincennes International (LWV) No weather for this Airport Unknown
Dayton-Wright Brothers (MGY) KMGY 182253Z AUTO 28008KT 10SM CLR 16/M01 A2986 RMK AO2 SLP114 T01611011 VFR
Indianapolis Regional (MQJ) No weather for this Airport Unknown
Union County (MRT) KMRT 182255Z AUTO 29007KT 10SM CLR 15/M05 A2987 RMK AO2 T01451049 VFR
Middletown Regional/Hook Field (MWO) KMWO 182255Z AUTO 32006KT 10SM CLR 16/M01 A2988 RMK AO2 T01631009 VFR
North Vernon (OVO) No weather for this Airport Unknown
Miami University (OXD) KOXD 182159Z AUTO 31004KT 10SM CLR 17/M02 A2988 RMK AO2 VFR
Pike County-Hatcher Field (PBX) KPBX 182235Z AUTO 30006KT 10SM OVC085 15/00 A2990 RMK AO2 T01521001 VFR
Greater Portsmouth Regional (PMH) KPMH 182159Z AUTO 24005KT 10SM BKN080 18/M01 A2988 RMK AO2 VFR
Edgar County (PRG) No weather for this Airport Unknown
Central Kentucky Regional (RGA) KRGA 182255Z AUTO 00000KT 10SM BKN095 16/03 A2990 RMK AO2 VFR
Richmond Municipal (RID) KRID 182255Z AUTO 29006KT 10SM SCT080 15/02 A2989 RMK AO2 VFR
Crawford Co (RSV) KRSV 182255Z AUTO 01009KT 10SM SCT085 14/05 A2990 RMK AO2 T01370052 VFR
Ross County (RZT) KRZT 182255Z AUTO 28010G14KT 10SM CLR 15/M07 A2987 RMK AO2 PWINO VFR
Sidney Municipal (SCA) No weather for this Airport Unknown
Scott Municipal (SCX) KSCX 182255Z AUTO 35005KT 10SM BKN070 OVC080 16/01 A2987 RMK A01 VFR
Freeman Municipal (SER) No weather for this Airport Unknown
Springfield-Beckley Municipal (SGH) No weather for this Airport Unknown
Sullivan County (SIV) No weather for this Airport Unknown
Big Sandy Regional (SJS) KSJS 182235Z AUTO 30006KT 10SM OVC090 16/00 A2990 RMK AO2 T01550000 VFR
Lake Cumberland Regional (SME) No weather for this Airport Unknown
Summersville (SXL) No weather for this Airport Unknown
Morehead-Rowan County Clyde A Thomas Regional (SYM) KSYM 182255Z AUTO 25003KT 10SM SCT095 15/01 A2991 RMK AO2 VFR
Perry County Municipal (TEL) No weather for this Airport Unknown
Sturgis Municipal (TWT) No weather for this Airport Unknown
Indianapolis Executive (TYQ) KTYQ 182255Z AUTO 29013G17KT 10SM OVC075 15/00 A2989 RMK AO2 T01451005 VFR
Indianapolis Metropolitan (UMP) No weather for this Airport Unknown
Ohio University (UNI) KUNI 182255Z AUTO 26008KT 10SM BKN080 17/M01 A2986 RMK AO2 T01701012 VFR
Boggs Field (USW) No weather for this Airport Unknown
New Castle Henry County Marlatt Field (UWL) No weather for this Airport Unknown
Madison County (UYF) KUYF 182255Z AUTO 27009KT 10SM CLR 15/M08 A2987 RMK AO2 VFR
Darke County (VES) KVES 182230Z AUTO 36009KT 10SM CLR 15/M04 A2987 RMK AO2 VFR
Newark-Heath (VTA) KVTA 182254Z AUTO 10SM CLR 16/M01 A2984 RMK AO2 SLP107 T01611006 VFR
Zanesville Municipal (ZZV) KZZV 182153Z AUTO 22006KT 10SM SCT100 16/04 A2985 RMK AO2 LTG DSNT N SLP108 T01560039 VFR
Red Stewart Airfield (40I) No weather for this Airport Unknown
Dahio Trotwood (I44) No weather for this Airport Unknown
Mad River Airpark (I54) No weather for this Airport Unknown
Moraine Air Park (I73) No weather for this Airport Unknown
Alexandria (I99) No weather for this Airport Unknown
Fry (0OH8) No weather for this Airport Unknown
Fayette County Memorial Hospital (11OH) No weather for this Airport Unknown
Uk Hospital (37KY) No weather for this Airport Unknown
Andy Barnhart Memorial (3OH0) No weather for this Airport Unknown
Medical Center Albany (45KY) No weather for this Airport Unknown
Westlake Regional Hospital (48KY) No weather for this Airport Unknown
Manchester Memorial Hospital (4KY2) No weather for this Airport Unknown
Bethesda Hospital Helistop (4OH2) No weather for this Airport Unknown
Appalachian Regional Hospital (51KY) No weather for this Airport Unknown
Bedford Medical Center (57IN) No weather for this Airport Unknown
Union Hospital (60II) No weather for this Airport Unknown
Skydive Greene County Inc (7OA7) No weather for this Airport Unknown
Methodist Hospital Of In Inc (81II) No weather for this Airport Unknown
Saint Joseph Hospital (88KY) No weather for this Airport Unknown
Riverside Methodist Hospital (9OI9) No weather for this Airport Unknown
Decatur County Memorial Hospital (IN35) No weather for this Airport Unknown
Reid Hospital (IN68) No weather for this Airport Unknown
Ball Memorial Hospital (IN74) No weather for this Airport Unknown
Iu Health Morgan (IN84) No weather for this Airport Unknown
Grant Medical Center (OH01) No weather for this Airport Unknown
Knox Communicipalty Hospital (OH04) No weather for this Airport Unknown
O'Bleness Memorial Hospital (OH23) No weather for this Airport Unknown
Schaney'S Lair (OH46) No weather for this Airport Unknown
Southern Ohio Regional Medical Center (OH62) No weather for this Airport Unknown
Troy Skypark (OH71) No weather for this Airport Unknown
Nationwide Children'S Hospital (OI95) No weather for this Airport Unknown